CW6020 Teulada ES current weather conditions

sailwx.info

Wind from 165

Air temperature 18.9° C
Dewpoint 16.5° C

Last reported at 2014-Jul-23 03:30 UTC.
Time now 2014-Jul-23 05:50 UTC

Location: N 38°44' E 000°06'.
View on Google Maps.

See reports from other nearby stations

  
Tides and Currents Weather Stations Pressure Air Temp Water Temp Dewpoint Dewpoint Depression Visibility Wind Speed Wind Dir Waves Ship Positions
date/time (UTC)wind fromknots sea level pressurealtimeterstation pressurevisibilityair tempwater tempwave heightnotes
2014-Jul-23 04:30 135 18.3
2014-Jul-23 04:10 105 18.9
2014-Jul-23 03:50 060 18.9
2014-Jul-23 03:30 165 18.9
2014-Jul-23 03:20 135 19.4
2014-Jul-23 03:10 030 19.4
2014-Jul-23 03:00 19.4
2014-Jul-23 02:50 090 19.4
2014-Jul-23 02:20 105 20.0
2014-Jul-23 02:10 180 20.0
2014-Jul-23 01:40 165 20.0
2014-Jul-23 01:30 255 20.6
2014-Jul-23 01:00 330 20.6
2014-Jul-23 00:30 180 21.7
2014-Jul-23 00:20 135 21.7
2014-Jul-23 00:00 015 22.2
2014-Jul-22 23:40 22.8
2014-Jul-22 23:30 015 22.8
2014-Jul-22 23:00 22.8
2014-Jul-22 22:50 030 22.8
2014-Jul-22 22:40 045 22.8
2014-Jul-22 22:30 030 23.3
2014-Jul-22 22:20 015 23.3
2014-Jul-22 22:00 045 23.3
2014-Jul-22 21:50 015 0 gusting 1 23.3
2014-Jul-22 21:30 285 23.3
2014-Jul-22 21:20 225 23.3
2014-Jul-22 21:10 225 23.3
2014-Jul-22 20:50 120 23.3
2014-Jul-22 20:20 165 2 gusting 3 23.9
2014-Jul-22 20:10 135 1 gusting 2 24.4
2014-Jul-22 19:20 150 6 gusting 8 25.0
2014-Jul-22 18:30 180 9 gusting 12 25.6
2014-Jul-22 17:50 180 6 gusting 8 28.9
2014-Jul-22 17:40 195 7 gusting 9 28.9
2014-Jul-22 17:20 165 9 gusting 11 28.9
2014-Jul-22 17:10 165 9 gusting 13 28.3
2014-Jul-22 16:20 180 9 gusting 18 28.9
2014-Jul-22 16:10 187 6 gusting 8 28.9
2014-Jul-22 16:00 180 7 gusting 13 29.4
2014-Jul-22 15:50 142 8 gusting 10 29.4
2014-Jul-22 15:40 150 7 gusting 11 29.4
2014-Jul-22 15:20 135 6 gusting 9 29.4
2014-Jul-22 15:00 150 5 gusting 6 29.4
2014-Jul-22 14:50 180 8 gusting 13 30.0
2014-Jul-22 14:10 195 7 gusting 11 30.6
2014-Jul-22 14:00 255 6 gusting 10 30.6
2014-Jul-22 13:50 075 4 gusting 6 30.6
2014-Jul-22 13:10 150 6 gusting 10 30.6
2014-Jul-22 13:00 165 5 gusting 6 30.6
2014-Jul-22 11:10 172 6 gusting 7 30.0
2014-Jul-22 11:00 150 6 gusting 6 30.0
2014-Jul-22 10:30 165 5 gusting 7 30.6
2014-Jul-22 09:50 195 3 gusting 6 30.6
2014-Jul-22 09:20 150 3 gusting 5 30.6
2014-Jul-22 09:00 150 4 gusting 6 31.1
2014-Jul-22 08:30 105 0 gusting 1 30.6
2014-Jul-22 08:20 225 3 gusting 5 29.4
2014-Jul-22 08:00 322 0 gusting 1 27.8
2014-Jul-22 07:50 300 1 gusting 2 27.2
2014-Jul-22 07:40 345 1 gusting 2 26.7
2014-Jul-22 07:30 322 25.6
2014-Jul-22 07:20 337 0 gusting 3 24.4
2014-Jul-22 07:10 015 23.9
2014-Jul-22 07:00 195 0 gusting 1 23.3
2014-Jul-22 06:30 315 0 gusting 1 22.8
2014-Jul-22 05:50 090 1 gusting 2 22.2
2014-Jul-22 05:40 150 1 gusting 2 22.2
2014-Jul-22 05:20 180 2 gusting 3 21.7
2014-Jul-22 05:00 165 1 gusting 3 21.7
2014-Jul-22 04:50 105 0 gusting 1 21.7
2014-Jul-22 04:30 150 1 gusting 3 21.7
2014-Jul-22 04:20 120 1 gusting 2 21.7
2014-Jul-22 04:10 165 1 gusting 2 21.1
2014-Jul-22 03:50 255 0 gusting 1 21.7
2014-Jul-22 03:30 075 21.7
2014-Jul-22 03:20 330 21.7
2014-Jul-22 03:00 090 1 gusting 2 22.2
2014-Jul-22 02:50 21.7
2014-Jul-22 02:40 165 1 gusting 2 21.7
2014-Jul-22 02:30 045 21.7
2014-Jul-22 02:20 015 0 gusting 1 21.1
2014-Jul-22 02:10 112 1 gusting 1 20.6
2014-Jul-22 01:40 180 1 gusting 2 20.6
2014-Jul-22 01:30 150 20.0
2014-Jul-22 00:50 060 20.6
2014-Jul-22 00:40 015 20.6
2014-Jul-21 23:50 045 21.7
2014-Jul-21 23:20 195 22.2
2014-Jul-21 23:10 240 22.2
2014-Jul-21 22:40 210 22.2
2014-Jul-21 22:30 195 22.2
2014-Jul-21 22:20 210 22.8
2014-Jul-21 21:50 255 0 gusting 1 22.8
2014-Jul-21 21:30 262 1 gusting 1 22.8
2014-Jul-21 21:10 150 22.8
2014-Jul-21 20:40 195 2 gusting 5 23.3
2014-Jul-21 20:00 180 3 gusting 3 23.3
2014-Jul-21 19:30 180 6 gusting 7 23.9
2014-Jul-21 19:20 157 3 gusting 6 24.4
2014-Jul-21 19:10 165 6 gusting 8 24.4
2014-Jul-21 18:50 142 6 gusting 9 24.4
2014-Jul-21 18:40 165 6 gusting 8 25.0
2014-Jul-21 18:30 135 5 gusting 6 25.0
2014-Jul-21 18:20 135 6 gusting 8 25.6
2014-Jul-21 17:40 165 5 gusting 7 27.8
2014-Jul-21 17:30 150 6 gusting 10 27.8
2014-Jul-21 16:50 135 6 gusting 8 28.3
2014-Jul-21 16:40 180 3 gusting 6 28.3
2014-Jul-21 16:30 195 5 gusting 8 28.9
2014-Jul-21 15:40 150 6 gusting 8 29.4
2014-Jul-21 15:30 135 4 gusting 6 29.4
2014-Jul-21 14:40 165 6 gusting 6 30.0
2014-Jul-21 14:20 150 3 gusting 6 30.6
2014-Jul-21 14:10 150 3 gusting 8 31.1
2014-Jul-21 14:00 195 6 gusting 8 31.1
2014-Jul-21 13:30 105 5 gusting 7 31.7
2014-Jul-21 12:50 172 5 gusting 8 32.2
2014-Jul-21 12:40 135 5 gusting 7 32.2
2014-Jul-21 12:30 090 6 gusting 8 32.8
2014-Jul-21 12:20 150 4 gusting 6 33.3
2014-Jul-21 12:10 225 1 gusting 3 33.3
2014-Jul-21 12:00 135 2 gusting 3 33.3
2014-Jul-21 11:50 135 5 gusting 6 32.8
2014-Jul-21 11:40 195 3 gusting 7 32.2
2014-Jul-21 11:30 030 1 gusting 3 32.2
2014-Jul-21 11:20 097 6 gusting 9 31.7
2014-Jul-21 11:10 157 3 gusting 4 31.7
2014-Jul-21 11:00 150 4 gusting 9 31.7
2014-Jul-21 10:50 135 7 gusting 10 31.7
2014-Jul-21 10:20 015 1 gusting 3 32.2
2014-Jul-21 09:50 225 1 gusting 3 30.6
2014-Jul-21 09:30 195 1 gusting 3 29.4
2014-Jul-21 09:20 045 1 gusting 2 29.4
2014-Jul-21 09:00 29.4
2014-Jul-21 08:50 045 1 gusting 2 28.3
2014-Jul-21 08:40 120 1 gusting 3 28.3
2014-Jul-21 08:20 105 2 gusting 4 27.8
2014-Jul-21 08:10 345 2 gusting 3 27.8
2014-Jul-21 07:50 007 3 gusting 6 27.2
2014-Jul-21 07:40 015 1 gusting 2 26.7
2014-Jul-21 07:30 217 2 gusting 4 26.1
2014-Jul-21 07:20 045 2 gusting 3 25.0
2014-Jul-21 07:10 24.4
2014-Jul-21 06:50 150 3 gusting 5 23.9
2014-Jul-21 06:10 150 1 gusting 2 23.3
2014-Jul-21 05:50 307 3 gusting 7 22.8
2014-Jul-21 05:30 277 1 gusting 6 22.8
2014-Jul-21 05:20 285 1 gusting 3 22.8